createdAt,value
2019-05-01T00:01:27.045Z,11.33
2019-05-01T00:04:00.999Z,11.38
2019-05-01T00:06:34.875Z,11.50
2019-05-01T00:09:12.409Z,11.49
2019-05-01T00:11:46.450Z,11.71
2019-05-01T00:14:20.037Z,11.62
2019-05-01T00:16:54.346Z,11.62
2019-05-01T00:19:28.339Z,11.78
2019-05-01T00:22:04.045Z,11.88
2019-05-01T00:24:38.411Z,11.80
2019-05-01T00:27:12.156Z,11.93
2019-05-01T00:29:46.154Z,11.83
2019-05-01T00:32:19.954Z,11.90
2019-05-01T00:34:55.540Z,12.01
2019-05-01T00:37:29.317Z,12.05
2019-05-01T00:40:04.299Z,12.30
2019-05-01T00:42:37.740Z,12.30
2019-05-01T00:45:11.707Z,12.55
2019-05-01T00:47:45.298Z,12.36
2019-05-01T00:50:21.233Z,12.61
2019-05-01T00:52:54.923Z,12.69
2019-05-01T00:55:37.761Z,12.46
2019-05-01T00:58:12.441Z,12.49
2019-05-01T01:00:49.979Z,12.59
2019-05-01T01:03:23.757Z,12.63
2019-05-01T01:05:57.571Z,13.01
2019-05-01T01:08:33.040Z,12.73
2019-05-01T01:11:07.107Z,12.64
2019-05-01T01:13:40.833Z,13.11
2019-05-01T01:16:14.765Z,13.28
2019-05-01T01:18:48.804Z,13.24
2019-05-01T01:21:22.718Z,13.07
2019-05-01T01:23:56.830Z,13.62
2019-05-01T01:26:31.919Z,13.76
2019-05-01T01:29:06.757Z,13.91
2019-05-01T01:31:40.489Z,13.70
2019-05-01T01:34:14.604Z,13.77
2019-05-01T01:36:48.319Z,13.91
2019-05-01T01:39:22.794Z,13.91
2019-05-01T01:41:57.339Z,14.09
2019-05-01T01:44:31.596Z,13.41
2019-05-01T01:47:06.896Z,13.93
2019-05-01T01:49:49.934Z,13.66
2019-05-01T01:52:24.417Z,14.09
2019-05-01T01:54:59.375Z,14.53
2019-05-01T01:57:33.030Z,14.29
2019-05-01T02:00:08.072Z,14.32
2019-05-01T03:19:13.325Z,16.16
2019-05-01T03:21:53.178Z,16.27
2019-05-01T03:24:33.390Z,16.38
2019-05-01T03:27:11.573Z,16.25
2019-05-01T03:29:46.164Z,15.89
2019-05-01T03:32:27.715Z,15.90
2019-05-01T03:35:04.982Z,15.92
2019-05-01T03:37:39.432Z,15.86
2019-05-01T03:40:14.562Z,16.31
2019-05-01T03:42:48.545Z,16.26
2019-05-01T03:45:25.285Z,16.59
2019-05-01T03:47:59.640Z,16.67
2019-05-01T03:50:33.554Z,16.35
2019-05-01T03:53:07.631Z,16.21
2019-05-01T03:55:41.386Z,16.82
2019-05-01T03:58:16.904Z,17.15
2019-05-01T04:00:53.115Z,16.95
2019-05-01T04:03:26.918Z,16.95
2019-05-01T04:06:00.960Z,16.87
2019-05-01T04:08:34.907Z,17.23
2019-05-01T04:11:08.698Z,17.23
2019-05-01T04:13:42.606Z,16.18
2019-05-01T04:16:16.440Z,17.12
2019-05-01T04:18:50.216Z,17.39
2019-05-01T04:21:24.325Z,17.58
2019-05-01T04:24:00.523Z,17.54
2019-05-01T04:26:34.264Z,17.25
2019-05-01T04:29:08.292Z,17.61
2019-05-01T04:31:42.746Z,17.42
2019-05-01T04:34:16.689Z,16.68
2019-05-01T04:36:51.855Z,16.68
2019-05-01T04:39:27.904Z,17.15
2019-05-01T04:42:01.555Z,17.15
2019-05-01T04:44:35.556Z,17.24
2019-05-01T04:47:09.421Z,17.03
2019-05-01T04:49:43.835Z,17.83
2019-05-01T04:52:18.057Z,17.92
2019-05-01T04:54:52.111Z,18.46
2019-05-01T04:57:29.933Z,18.21
2019-05-01T05:00:04.363Z,17.79
2019-05-01T05:02:39.036Z,18.17
2019-05-01T05:05:13.493Z,18.35
2019-05-01T05:07:47.655Z,18.45
2019-05-01T05:10:21.784Z,18.18
2019-05-01T05:12:56.416Z,17.90
2019-05-01T05:15:30.909Z,17.96
2019-05-01T05:18:05.263Z,18.07
2019-05-01T05:20:39.482Z,17.83
2019-05-01T05:23:14.567Z,17.70
2019-05-01T05:25:51.570Z,18.03
2019-05-01T05:28:27.132Z,18.25
2019-05-01T05:31:02.678Z,18.04
2019-05-01T05:33:40.732Z,18.72
2019-05-01T05:36:19.453Z,18.49
2019-05-01T05:38:54.834Z,18.02
2019-05-01T05:41:30.013Z,18.45
2019-05-01T05:44:04.367Z,18.64
2019-05-01T05:46:38.920Z,18.93
2019-05-01T05:49:12.920Z,18.25
2019-05-01T05:51:48.583Z,17.93
2019-05-01T05:54:24.854Z,18.15
2019-05-01T05:57:01.150Z,19.10
2019-05-01T05:59:37.076Z,18.36
2019-05-01T06:02:13.766Z,18.50
2019-05-01T06:04:49.659Z,18.85
2019-05-01T06:07:27.096Z,18.46
2019-05-01T06:10:03.757Z,18.33
2019-05-01T06:12:41.754Z,18.44
2019-05-01T06:15:17.047Z,18.66
2019-05-01T06:17:51.549Z,18.53
2019-05-01T06:20:25.867Z,17.90
2019-05-01T06:23:02.020Z,17.98
2019-05-01T06:25:37.461Z,18.12
2019-05-01T06:28:11.849Z,18.15
2019-05-01T06:30:48.859Z,17.99
2019-05-01T06:33:22.113Z,17.25
2019-05-01T06:35:56.094Z,17.31
2019-05-01T06:38:31.480Z,17.53
2019-05-01T06:41:05.045Z,17.04
2019-05-01T06:43:40.077Z,17.24
2019-05-01T06:46:14.005Z,17.37
2019-05-01T06:48:53.437Z,17.55
2019-05-01T06:51:27.659Z,17.68
2019-05-01T06:54:01.671Z,17.70
2019-05-01T06:56:39.818Z,17.46
2019-05-01T06:59:15.821Z,17.34
2019-05-01T07:01:58.031Z,17.74
2019-05-01T07:04:32.188Z,17.39
2019-05-01T07:07:06.654Z,17.44
2019-05-01T07:09:44.088Z,18.23
2019-05-01T07:12:18.539Z,18.23
2019-05-01T07:14:53.225Z,17.91
2019-05-01T07:17:27.035Z,17.73
2019-05-01T07:20:01.355Z,17.88
2019-05-01T07:22:37.163Z,17.51
2019-05-01T07:25:12.423Z,17.67
2019-05-01T07:27:48.183Z,17.57
2019-05-01T07:30:24.466Z,17.57
2019-05-01T07:32:58.930Z,17.41
2019-05-01T07:35:36.842Z,17.70
2019-05-01T07:38:12.238Z,17.79
2019-05-01T07:40:46.342Z,18.18
2019-05-01T07:43:23.954Z,18.27
2019-05-01T07:45:56.919Z,17.84
2019-05-01T07:48:41.093Z,17.41
2019-05-01T07:51:14.044Z,17.59
2019-05-01T07:53:49.996Z,17.68
2019-05-01T07:56:28.017Z,17.52
2019-05-01T07:59:01.228Z,17.74
2019-05-01T08:01:37.936Z,18.16
2019-05-01T08:04:13.751Z,17.93
2019-05-01T08:06:51.944Z,18.23
2019-05-01T08:09:22.995Z,17.71
2019-05-01T08:11:56.758Z,17.84
2019-05-01T08:14:30.539Z,17.67
2019-05-01T08:17:04.554Z,17.27
2019-05-01T08:19:39.459Z,17.27
2019-05-01T08:22:13.409Z,17.66
2019-05-01T08:24:47.014Z,17.87
2019-05-01T08:27:21.391Z,17.25
2019-05-01T08:29:54.950Z,17.47
2019-05-01T08:32:28.777Z,17.19
2019-05-01T08:35:03.466Z,17.15
2019-05-01T08:37:37.344Z,17.40
2019-05-01T08:40:15.823Z,17.39
2019-05-01T08:42:47.641Z,17.31
2019-05-01T08:45:22.276Z,17.47
2019-05-01T08:48:00.383Z,17.23
2019-05-01T08:50:32.592Z,17.10
2019-05-01T08:53:06.306Z,16.93
2019-05-01T08:55:44.915Z,16.95
2019-05-01T08:58:15.939Z,16.96
2019-05-01T09:00:51.103Z,16.94
2019-05-01T09:03:25.236Z,17.06
2019-05-01T09:05:59.050Z,16.87
2019-05-01T09:08:33.346Z,16.33
2019-05-01T09:11:07.455Z,16.47
2019-05-01T09:13:41.768Z,16.48
2019-05-01T09:16:19.167Z,16.13
2019-05-01T09:18:53.801Z,16.08
2019-05-01T09:21:27.731Z,16.25
2019-05-01T09:24:01.778Z,16.21
2019-05-01T09:26:35.865Z,16.32
2019-05-01T09:29:11.024Z,16.38
2019-05-01T09:31:44.928Z,16.16
2019-05-01T09:34:21.009Z,15.87
2019-05-01T09:36:55.010Z,16.21
2019-05-01T09:39:29.015Z,15.88
2019-05-01T09:42:02.997Z,15.97
2019-05-01T09:44:37.870Z,15.81
2019-05-01T09:47:12.384Z,15.84
2019-05-01T09:49:48.654Z,15.74
2019-05-01T09:52:23.450Z,15.92
2019-05-01T09:54:57.664Z,15.81
2019-05-01T09:57:31.782Z,16.02
2019-05-01T10:00:06.865Z,15.92
2019-05-01T10:02:42.183Z,15.63
2019-05-01T10:05:28.222Z,15.99
2019-05-01T10:07:50.704Z,15.82
2019-05-01T10:10:28.941Z,15.77
2019-05-01T10:12:59.806Z,15.60
2019-05-01T10:15:33.444Z,15.60
2019-05-01T10:18:07.593Z,15.62
2019-05-01T10:20:42.364Z,15.54
2019-05-01T10:23:17.319Z,15.49
2019-05-01T10:25:51.252Z,15.40
2019-05-01T10:28:25.191Z,15.40
2019-05-01T10:30:59.176Z,15.29
2019-05-01T10:33:33.821Z,15.19
2019-05-01T10:36:08.023Z,15.30
2019-05-01T10:38:45.124Z,15.31
2019-05-01T10:41:19.647Z,15.42
2019-05-01T10:43:53.464Z,15.42
2019-05-01T10:46:27.049Z,15.43
2019-05-01T10:49:01.044Z,15.16
2019-05-01T10:51:35.977Z,15.12
2019-05-01T10:54:09.587Z,15.17
2019-05-01T10:56:44.478Z,15.27
2019-05-01T10:59:23.543Z,15.16
2019-05-01T11:01:59.410Z,15.10
2019-05-01T11:04:34.802Z,15.27
2019-05-01T11:07:10.248Z,15.24
2019-05-01T11:09:44.220Z,15.46
2019-05-01T11:12:17.805Z,15.46
2019-05-01T11:14:51.447Z,15.43
2019-05-01T11:17:25.296Z,15.18
2019-05-01T11:20:01.852Z,15.20
2019-05-01T11:22:35.863Z,15.13
2019-05-01T11:25:10.862Z,15.01
2019-05-01T11:27:44.709Z,15.01
2019-05-01T11:30:18.734Z,14.89
2019-05-01T11:32:52.476Z,14.69
2019-05-01T11:35:25.986Z,14.48
2019-05-01T11:38:00.052Z,14.38
2019-05-01T11:40:33.791Z,14.17
2019-05-01T11:43:07.708Z,14.24
2019-05-01T11:45:41.383Z,13.96
2019-05-01T11:48:15.659Z,13.69
2019-05-01T11:50:51.088Z,13.98
2019-05-01T11:53:26.312Z,13.70
2019-05-01T11:56:00.600Z,13.68
2019-05-01T11:58:34.648Z,13.59
2019-05-01T12:01:08.475Z,13.22
2019-05-01T12:03:53.969Z,13.34
2019-05-01T12:06:27.875Z,13.23
2019-05-01T12:09:01.846Z,13.24
2019-05-01T12:11:35.672Z,13.07
2019-05-01T12:14:10.617Z,13.28
2019-05-01T12:16:44.279Z,12.78
2019-05-01T12:19:19.149Z,12.75
2019-05-01T12:21:54.904Z,12.64
2019-05-01T12:24:28.557Z,12.44
2019-05-01T12:27:02.304Z,12.77
2019-05-01T12:29:36.156Z,12.81
2019-05-01T12:32:10.358Z,12.60
2019-05-01T12:34:44.157Z,12.22
2019-05-01T12:37:17.981Z,12.12
2019-05-01T12:39:54.089Z,12.26
2019-05-01T12:42:28.370Z,12.22
2019-05-01T12:45:02.252Z,12.06
2019-05-01T12:47:38.075Z,12.32
2019-05-01T12:50:12.240Z,12.34
2019-05-01T12:52:46.099Z,12.15
2019-05-01T12:55:19.912Z,11.94
2019-05-01T12:57:53.795Z,12.09
2019-05-01T13:00:47.029Z,11.68
2019-05-01T13:03:27.101Z,11.71
2019-05-01T13:06:01.073Z,11.80
2019-05-01T13:08:34.669Z,11.75
2019-05-01T13:11:09.808Z,11.36
2019-05-01T13:13:44.817Z,11.85
2019-05-01T13:16:18.711Z,11.69
2019-05-01T13:18:52.250Z,11.35
2019-05-01T13:21:26.098Z,11.49
2019-05-01T13:23:59.841Z,11.35
2019-05-01T13:26:34.364Z,11.61
2019-05-01T13:29:09.510Z,11.62
2019-05-01T13:31:44.728Z,11.60
2019-05-01T13:34:18.409Z,11.23
2019-05-01T13:37:02.348Z,11.20
2019-05-01T13:39:27.005Z,11.37
2019-05-01T13:42:01.100Z,11.50
2019-05-01T13:44:34.876Z,11.45
2019-05-01T13:47:10.124Z,11.26
2019-05-01T13:49:45.317Z,11.25
2019-05-01T13:52:20.697Z,11.17
2019-05-01T13:54:54.437Z,10.96
2019-05-01T13:57:28.016Z,11.17
2019-05-01T14:00:02.061Z,11.14
2019-05-01T14:02:36.005Z,10.96
2019-05-01T14:05:12.928Z,10.96
2019-05-01T14:07:46.842Z,10.96
2019-05-01T14:10:22.083Z,11.00
2019-05-01T14:12:56.321Z,11.22
2019-05-01T14:15:30.341Z,11.02
2019-05-01T14:18:04.064Z,10.79
2019-05-01T14:20:38.572Z,10.56
2019-05-01T14:23:13.800Z,10.82
2019-05-01T14:25:47.658Z,10.70
2019-05-01T14:28:21.276Z,10.85
2019-05-01T14:30:55.089Z,10.72
2019-05-01T14:33:28.966Z,10.71
2019-05-01T14:36:02.659Z,10.68
2019-05-01T14:38:36.723Z,10.70
2019-05-01T14:41:10.899Z,10.66
2019-05-01T14:43:45.928Z,10.75
2019-05-01T14:46:21.505Z,10.72
2019-05-01T14:48:56.821Z,10.64
2019-05-01T14:51:30.943Z,10.70
2019-05-01T14:54:04.809Z,10.63
2019-05-01T14:56:38.595Z,10.48
2019-05-01T14:59:12.256Z,10.58
2019-05-01T15:01:47.139Z,10.57
2019-05-01T15:04:20.525Z,10.57
2019-05-01T15:06:54.355Z,10.61
2019-05-01T15:09:29.013Z,10.58
2019-05-01T15:12:02.703Z,10.50
2019-05-01T15:14:36.196Z,10.78
2019-05-01T15:17:11.173Z,10.75
2019-05-01T15:19:44.502Z,10.83
2019-05-01T15:22:18.366Z,10.88
2019-05-01T15:24:52.247Z,10.85
2019-05-01T15:27:26.063Z,10.82
2019-05-01T15:29:59.917Z,10.89
2019-05-01T15:32:33.683Z,10.93
2019-05-01T15:35:08.136Z,10.75
2019-05-01T15:37:41.821Z,10.60
2019-05-01T15:40:15.821Z,10.53
2019-05-01T15:42:51.225Z,10.62
2019-05-01T15:45:25.122Z,10.56
2019-05-01T15:47:58.955Z,10.31
2019-05-01T15:50:33.980Z,10.25
2019-05-01T15:53:09.436Z,10.23
2019-05-01T15:55:47.453Z,10.36
2019-05-01T15:58:21.055Z,10.22
2019-05-01T16:00:56.186Z,9.91
2019-05-01T16:03:29.923Z,10.02
2019-05-01T16:06:03.527Z,9.95
2019-05-01T16:08:38.869Z,9.89
2019-05-01T16:11:14.588Z,9.83
2019-05-01T16:13:50.012Z,9.70
2019-05-01T16:16:23.849Z,9.78
2019-05-01T16:18:57.912Z,9.67
2019-05-01T16:21:32.060Z,9.58
2019-05-01T16:24:06.236Z,9.58
2019-05-01T16:26:39.881Z,9.71
2019-05-01T16:29:14.709Z,9.52
2019-05-01T16:31:48.093Z,9.59
2019-05-01T16:34:21.914Z,9.62
2019-05-01T16:36:55.479Z,9.38
2019-05-01T16:39:29.138Z,9.44
2019-05-01T16:42:02.812Z,9.28
2019-05-01T16:44:36.604Z,9.12
2019-05-01T16:47:10.283Z,9.36
2019-05-01T16:49:44.595Z,9.27
2019-05-01T16:52:18.720Z,9.12
2019-05-01T16:54:59.376Z,9.30
2019-05-01T16:57:28.801Z,9.26
2019-05-01T17:00:02.451Z,9.09
2019-05-01T17:02:36.307Z,9.26
2019-05-01T17:05:10.448Z,9.21
2019-05-01T17:07:46.720Z,9.14
2019-05-01T17:10:20.797Z,9.05
2019-05-01T17:12:54.409Z,8.99
2019-05-01T17:15:28.129Z,9.00
2019-05-01T17:18:03.560Z,8.97
2019-05-01T17:20:37.513Z,8.92
2019-05-01T17:23:11.107Z,8.90
2019-05-01T17:25:44.624Z,8.90
2019-05-01T17:28:18.583Z,8.81
2019-05-01T17:30:52.371Z,8.93
2019-05-01T17:33:26.169Z,8.90
2019-05-01T17:35:59.854Z,8.79
2019-05-01T17:38:34.817Z,8.81
2019-05-01T17:41:10.618Z,9.04
2019-05-01T17:43:49.245Z,9.08
2019-05-01T17:46:20.149Z,8.99
2019-05-01T17:48:55.493Z,9.07
2019-05-01T17:51:30.907Z,9.26
2019-05-01T17:54:04.935Z,9.50
2019-05-01T17:56:38.583Z,9.59
2019-05-01T17:59:12.224Z,9.63
2019-05-01T18:01:46.147Z,9.69
2019-05-01T18:04:19.816Z,9.74
2019-05-01T18:06:54.465Z,9.90
2019-05-01T18:09:28.131Z,9.97
2019-05-01T18:12:02.019Z,9.99
2019-05-01T18:14:36.952Z,9.89
2019-05-01T18:17:11.077Z,9.97
2019-05-01T18:19:45.080Z,10.05
2019-05-01T18:22:19.152Z,10.00
2019-05-01T18:24:53.876Z,9.92
2019-05-01T18:27:27.635Z,9.98
2019-05-01T18:30:01.092Z,10.01
2019-05-01T18:32:36.340Z,9.99
2019-05-01T18:35:14.047Z,9.92
2019-05-01T18:37:45.385Z,9.95
2019-05-01T18:40:19.164Z,9.99
2019-05-01T18:42:52.923Z,10.02
2019-05-01T18:45:54.298Z,9.87
2019-05-01T18:48:29.677Z,10.01
2019-05-01T18:51:04.356Z,10.15
2019-05-01T18:53:38.350Z,10.09
2019-05-01T18:56:11.730Z,10.19
2019-05-01T18:58:46.626Z,10.27
2019-05-01T19:01:20.427Z,10.35
2019-05-01T19:03:54.258Z,10.40
2019-05-01T19:06:40.383Z,10.33
2019-05-01T19:09:14.225Z,10.47
2019-05-01T19:11:37.915Z,10.63
2019-05-01T19:14:11.862Z,10.76
2019-05-01T19:16:47.120Z,10.72
2019-05-01T19:19:21.162Z,10.96
2019-05-01T19:21:55.054Z,11.06
2019-05-01T19:24:32.506Z,11.08
2019-05-01T19:27:04.550Z,11.09
2019-05-01T19:29:38.473Z,11.09
2019-05-01T19:32:11.921Z,11.12
2019-05-01T19:34:45.732Z,11.17
2019-05-01T19:37:21.871Z,11.15
2019-05-01T19:39:55.175Z,11.11
2019-05-01T19:42:29.075Z,11.15
2019-05-01T19:45:03.365Z,11.18
2019-05-01T19:47:37.164Z,11.19
2019-05-01T19:50:10.866Z,11.26
2019-05-01T19:52:44.435Z,11.29
2019-05-01T19:55:17.979Z,11.22
2019-05-01T19:57:51.571Z,11.18
2019-05-01T20:00:53.507Z,11.19
2019-05-01T20:03:30.623Z,11.02
2019-05-01T20:06:06.174Z,11.09
2019-05-01T20:08:40.258Z,11.07
2019-05-01T20:11:15.287Z,11.08
2019-05-01T20:13:49.011Z,11.16
2019-05-01T20:16:22.643Z,11.17
2019-05-01T20:18:56.161Z,11.22
2019-05-01T20:21:29.867Z,11.26
2019-05-01T20:24:04.256Z,11.23
2019-05-01T20:26:38.330Z,11.16
2019-05-01T20:29:12.393Z,11.23
2019-05-01T20:31:50.839Z,11.16
2019-05-01T20:34:22.416Z,11.17
2019-05-01T20:36:56.068Z,11.09
2019-05-01T20:39:29.531Z,11.20
2019-05-01T20:42:03.359Z,11.18
2019-05-01T20:44:37.143Z,11.26
2019-05-01T20:47:10.967Z,11.23
2019-05-01T20:49:44.698Z,11.23
2019-05-01T20:52:18.568Z,11.23
2019-05-01T20:54:52.293Z,11.19
2019-05-01T20:57:25.774Z,11.21
2019-05-01T20:59:59.714Z,11.18
2019-05-01T21:02:33.446Z,11.18
2019-05-01T21:05:07.632Z,11.18
2019-05-01T21:07:41.193Z,11.11
2019-05-01T21:10:24.578Z,11.13
2019-05-01T21:12:49.877Z,11.12
2019-05-01T21:15:24.913Z,11.06
2019-05-01T21:17:59.822Z,11.07
2019-05-01T21:20:33.921Z,11.00
2019-05-01T21:23:11.652Z,11.02
2019-05-01T21:25:54.956Z,11.01
2019-05-01T21:28:29.994Z,10.87
2019-05-01T21:31:04.080Z,10.87
2019-05-01T21:33:40.798Z,10.85
2019-05-01T21:36:14.802Z,10.85
2019-05-01T21:38:48.471Z,10.86
2019-05-01T21:41:22.473Z,10.82
2019-05-01T21:43:56.053Z,10.83
2019-05-01T21:46:30.167Z,10.89
2019-05-01T21:49:03.664Z,10.71
2019-05-01T21:51:41.512Z,10.69
2019-05-01T21:54:16.053Z,10.70
2019-05-01T21:56:48.942Z,10.70
2019-05-01T21:59:22.869Z,10.64
2019-05-01T22:01:56.776Z,10.64
2019-05-01T22:04:32.002Z,10.63
2019-05-01T22:07:05.936Z,10.67
2019-05-01T22:09:39.595Z,10.70
2019-05-01T22:12:14.448Z,10.72
2019-05-01T22:14:48.629Z,10.84
2019-05-01T22:17:22.542Z,10.94
2019-05-01T22:19:56.199Z,10.97
2019-05-01T22:22:29.946Z,11.07
2019-05-01T22:25:03.814Z,11.07
2019-05-01T22:27:39.137Z,11.07
2019-05-01T22:30:14.074Z,11.31
2019-05-01T22:32:47.644Z,11.33
2019-05-01T22:35:21.356Z,11.17
2019-05-01T22:37:55.030Z,11.26
2019-05-01T22:40:28.735Z,11.27
2019-05-01T22:43:02.476Z,11.36
2019-05-01T22:45:36.223Z,11.48
2019-05-01T22:48:09.938Z,11.51
2019-05-01T22:50:44.228Z,11.57
2019-05-01T22:53:18.318Z,11.67
2019-05-01T22:55:52.117Z,11.75
2019-05-01T22:58:25.774Z,11.74
2019-05-01T23:01:00.602Z,11.84
2019-05-01T23:03:40.533Z,11.90
2019-05-01T23:06:09.686Z,11.90
2019-05-01T23:08:43.578Z,12.13
2019-05-01T23:11:20.053Z,12.13
2019-05-01T23:13:52.472Z,12.28
2019-05-01T23:16:28.742Z,12.43
2019-05-01T23:19:00.952Z,12.51
2019-05-01T23:21:34.704Z,12.60
2019-05-01T23:24:08.370Z,12.66
2019-05-01T23:26:42.016Z,12.77
2019-05-01T23:29:15.624Z,12.91
2019-05-01T23:31:49.296Z,12.98
2019-05-01T23:34:27.904Z,13.15
2019-05-01T23:37:01.348Z,13.20
2019-05-01T23:39:40.441Z,13.30
2019-05-01T23:42:09.966Z,13.36
2019-05-01T23:44:44.996Z,13.55
2019-05-01T23:47:18.776Z,13.46
2019-05-01T23:49:53.698Z,13.59
2019-05-01T23:52:27.488Z,13.79
2019-05-01T23:55:00.912Z,13.77
2019-05-01T23:57:35.997Z,13.91
